createdAt,value
2019-05-18T00:01:40.983Z,6.17
2019-05-18T00:06:36.699Z,6.00
2019-05-18T00:11:32.421Z,5.67
2019-05-18T00:16:28.467Z,6.77
2019-05-18T00:21:24.298Z,7.00
2019-05-18T00:26:20.008Z,6.50
2019-05-18T00:31:15.726Z,6.10
2019-05-18T00:36:11.479Z,6.83
2019-05-18T00:41:07.325Z,6.77
2019-05-18T00:51:26.623Z,6.90
2019-05-18T00:56:22.339Z,7.00
2019-05-18T01:01:18.061Z,6.97
2019-05-18T01:06:13.767Z,6.47
2019-05-18T01:11:09.509Z,6.77
2019-05-18T01:16:05.215Z,6.93
2019-05-18T01:21:01.023Z,7.07
2019-05-18T01:25:56.736Z,7.13
2019-05-18T01:31:12.420Z,7.73
2019-05-18T01:36:08.123Z,8.07
2019-05-18T01:41:03.907Z,7.70
2019-05-18T01:45:59.621Z,7.60
2019-05-18T01:50:55.346Z,7.20
2019-05-18T01:55:51.051Z,7.50
2019-05-18T02:00:46.783Z,7.47
2019-05-18T02:05:42.483Z,7.13
2019-05-18T02:10:38.202Z,8.17
2019-05-18T02:15:33.912Z,7.57
2019-05-18T02:20:29.636Z,7.87
2019-05-18T02:25:25.379Z,8.17
2019-05-18T02:30:41.192Z,7.73
2019-05-18T02:35:57.322Z,7.60
2019-05-18T02:40:53.231Z,8.07
2019-05-18T02:45:49.106Z,8.03
2019-05-18T02:50:45.042Z,7.33
2019-05-18T02:55:40.925Z,7.53
2019-05-18T03:00:36.892Z,7.17
2019-05-18T03:11:08.114Z,6.50
2019-05-18T03:15:54.043Z,6.83
2019-05-18T03:26:13.149Z,7.20
2019-05-18T03:53:30.704Z,6.87
2019-05-18T03:58:26.671Z,7.00
2019-05-18T04:03:22.549Z,6.40
2019-05-18T04:08:38.377Z,7.07
2019-05-18T04:13:54.226Z,6.77
2019-05-18T04:18:50.168Z,7.20
2019-05-18T04:23:46.428Z,7.30
2019-05-18T04:33:44.729Z,6.67
2019-05-18T04:38:40.604Z,6.70
2019-05-18T04:43:36.482Z,6.80
2019-05-18T04:48:32.354Z,6.77
2019-05-18T04:53:28.228Z,6.33
2019-05-18T04:58:24.089Z,7.10
2019-05-18T05:03:39.913Z,7.50
2019-05-18T05:08:38.292Z,7.07
2019-05-18T05:13:54.131Z,7.67
2019-05-18T05:24:21.069Z,6.90
2019-05-18T05:29:16.942Z,6.27
2019-05-18T05:34:12.797Z,6.37
2019-05-18T05:39:28.640Z,6.13
2019-05-18T05:44:24.503Z,5.77
2019-05-18T05:49:20.380Z,6.43
2019-05-18T05:59:25.793Z,4.90
2019-05-18T06:04:41.659Z,5.30
2019-05-18T06:09:37.519Z,5.50
2019-05-18T06:14:53.357Z,4.90
2019-05-18T06:25:20.290Z,4.20
2019-05-18T06:35:51.867Z,4.10
2019-05-18T06:40:57.753Z,4.10
2019-05-18T06:51:06.828Z,3.63
2019-05-18T07:01:36.720Z,3.77
2019-05-18T07:06:32.664Z,3.30
2019-05-18T07:11:28.548Z,3.23
2019-05-18T07:16:44.445Z,2.80
2019-05-18T07:22:00.222Z,2.90
2019-05-18T07:26:56.112Z,3.47
2019-05-18T07:32:05.934Z,3.10
2019-05-18T07:36:49.530Z,3.23
2019-05-18T07:41:57.203Z,3.27
2019-05-18T07:46:43.217Z,3.23
2019-05-18T07:51:59.043Z,3.43
2019-05-18T07:57:14.896Z,3.10
2019-05-18T08:29:47.124Z,2.42
2019-05-18T08:35:03.214Z,2.30
2019-05-18T08:39:59.389Z,2.70
2019-05-18T08:44:55.282Z,2.60
2019-05-18T08:49:51.130Z,2.30
2019-05-18T08:55:07.066Z,2.60
2019-05-18T09:00:23.090Z,2.42
2019-05-18T09:05:19.320Z,2.45
2019-05-18T09:10:29.160Z,2.20
2019-05-18T09:20:37.174Z,2.12
2019-05-18T09:25:53.081Z,2.98
2019-05-18T09:31:08.907Z,3.00
2019-05-18T09:36:04.773Z,3.40
2019-05-18T09:41:00.641Z,2.98
2019-05-18T09:51:08.606Z,2.95
2019-05-18T09:56:04.637Z,2.12
2019-05-18T10:01:00.910Z,2.02
2019-05-18T10:05:56.774Z,2.10
2019-05-18T10:10:52.648Z,2.15
2019-05-18T10:15:48.508Z,2.45
2019-05-18T10:20:44.749Z,12.98
2019-05-18T10:25:41.096Z,2.87
2019-05-18T10:30:37.167Z,3.40
2019-05-18T10:35:33.263Z,5.75
2019-05-18T10:40:29.121Z,2.30
2019-05-18T10:45:25.102Z,2.20
2019-05-18T10:50:21.065Z,2.05
2019-05-18T10:55:17.063Z,2.00
2019-05-18T11:00:13.386Z,2.22
2019-05-18T11:05:09.552Z,2.17
2019-05-18T11:10:09.048Z,2.22
2019-05-18T11:15:06.005Z,4.28
2019-05-18T11:20:02.535Z,2.05
2019-05-18T11:24:58.444Z,7.35
2019-05-18T11:29:54.441Z,2.45
2019-05-18T11:34:51.162Z,2.87
2019-05-18T11:39:47.240Z,2.20
2019-05-18T11:44:43.181Z,2.35
2019-05-18T11:49:39.162Z,2.25
2019-05-18T11:54:35.139Z,2.70
2019-05-18T11:59:31.019Z,2.22
2019-05-18T12:04:26.883Z,2.40
2019-05-18T12:09:22.752Z,3.35
2019-05-18T12:14:18.816Z,3.00
2019-05-18T12:19:14.781Z,5.70
2019-05-18T12:24:15.254Z,2.65
2019-05-18T12:29:09.037Z,2.50
2019-05-18T12:34:05.018Z,3.08
2019-05-18T12:39:01.222Z,2.77
2019-05-18T12:43:57.191Z,3.40
2019-05-18T12:48:53.472Z,2.58
2019-05-18T12:53:50.362Z,2.80
2019-05-18T12:58:46.352Z,3.10
2019-05-18T13:03:42.227Z,3.08
2019-05-18T13:08:38.212Z,2.30
2019-05-18T13:13:34.076Z,2.92
2019-05-18T13:18:29.933Z,2.40
2019-05-18T13:23:26.016Z,5.75
2019-05-18T13:28:22.114Z,3.00
2019-05-18T13:33:17.988Z,3.02
2019-05-18T13:38:13.985Z,2.62
2019-05-18T13:43:09.870Z,2.77
2019-05-18T13:48:05.831Z,2.60
2019-05-18T13:53:01.940Z,4.03
2019-05-18T13:57:59.137Z,2.83
2019-05-18T14:02:55.003Z,3.20
2019-05-18T14:07:50.953Z,4.95
2019-05-18T14:12:46.856Z,3.58
2019-05-18T14:17:42.799Z,3.22
2019-05-18T14:22:38.817Z,3.95
2019-05-18T14:27:34.773Z,6.25
2019-05-18T14:32:33.792Z,4.12
2019-05-18T14:37:29.731Z,5.45
2019-05-18T14:42:25.663Z,3.47
2019-05-18T14:47:21.842Z,3.22
2019-05-18T14:52:18.242Z,10.53
2019-05-18T14:57:14.289Z,5.60
2019-05-18T15:02:10.269Z,4.65
2019-05-18T15:07:06.365Z,3.25
2019-05-18T15:12:02.233Z,4.97
2019-05-18T15:16:58.502Z,3.30
2019-05-18T15:21:54.754Z,2.90
2019-05-18T15:26:50.752Z,4.05
2019-05-18T15:31:46.991Z,2.87
2019-05-18T15:36:42.907Z,3.35
2019-05-18T15:41:38.805Z,3.52
2019-05-18T15:46:34.804Z,3.22
2019-05-18T15:51:30.817Z,3.60
2019-05-18T15:56:38.495Z,4.15
2019-05-18T16:01:44.345Z,3.10
2019-05-18T16:06:40.221Z,2.58
2019-05-18T16:11:56.346Z,2.20
2019-05-18T16:22:44.496Z,6.28
2019-05-18T16:27:41.177Z,2.62
2019-05-18T16:38:00.192Z,2.70
2019-05-18T16:42:56.102Z,2.65
2019-05-18T16:48:11.935Z,2.90
2019-05-18T16:53:07.815Z,2.67
2019-05-18T16:58:15.584Z,2.83
2019-05-18T17:03:01.375Z,3.20
2019-05-18T17:07:57.282Z,2.92
2019-05-18T17:12:53.171Z,3.17
2019-05-18T18:07:28.876Z,3.08
2019-05-18T18:12:24.759Z,3.45
2019-05-18T18:17:20.968Z,3.72
2019-05-18T18:22:16.856Z,4.35
2019-05-18T18:27:24.943Z,4.72
2019-05-18T18:32:10.519Z,3.92
2019-05-18T18:37:26.359Z,3.50
2019-05-18T18:42:22.213Z,4.27
2019-05-18T18:47:38.095Z,4.10
2019-05-18T18:52:53.837Z,4.20
2019-05-18T18:58:09.691Z,3.73
2019-05-18T19:08:49.150Z,4.60
2019-05-18T19:14:04.993Z,4.30
2019-05-18T19:19:21.083Z,4.17
2019-05-18T19:24:16.945Z,4.67
2019-05-18T19:29:12.819Z,4.33
2019-05-18T19:50:53.701Z,5.27
2019-05-18T19:56:09.425Z,4.40
2019-05-18T20:01:25.155Z,5.27
2019-05-18T20:06:41.050Z,4.90
2019-05-18T20:11:56.915Z,5.50
2019-05-18T20:17:04.585Z,5.80
2019-05-18T20:22:10.426Z,5.43
2019-05-18T20:27:26.309Z,5.60
2019-05-18T20:37:45.611Z,5.43
2019-05-18T20:43:01.578Z,5.10
2019-05-18T20:48:17.486Z,5.70
2019-05-18T20:53:33.355Z,5.53
2019-05-18T20:58:39.648Z,5.70
2019-05-18T21:03:26.837Z,5.50
2019-05-18T21:13:53.706Z,6.27
2019-05-18T21:19:01.658Z,6.57
2019-05-18T21:24:07.337Z,6.70
2019-05-18T21:34:05.437Z,6.73
2019-05-18T21:39:01.303Z,6.20
2019-05-18T21:43:57.200Z,6.33
2019-05-18T21:48:53.036Z,7.30
2019-05-18T21:53:48.960Z,7.63
2019-05-18T21:58:44.834Z,9.03
2019-05-18T22:04:00.670Z,8.17
2019-05-18T22:30:55.002Z,9.60
2019-05-18T22:35:50.909Z,10.50
2019-05-18T22:41:06.742Z,8.47
2019-05-18T22:46:22.572Z,9.33
2019-05-18T22:51:18.427Z,9.40
2019-05-18T22:56:14.246Z,9.80
2019-05-18T23:01:30.109Z,9.77
2019-05-18T23:06:26.387Z,9.93
2019-05-18T23:16:18.502Z,10.40
2019-05-18T23:21:14.366Z,9.67
2019-05-18T23:26:11.741Z,10.30
2019-05-18T23:31:07.982Z,10.30
2019-05-18T23:36:04.062Z,10.27
2019-05-18T23:40:59.916Z,10.20
2019-05-18T23:45:55.783Z,10.63
2019-05-18T23:50:51.662Z,10.20
2019-05-18T23:55:47.643Z,9.90
